Time;durP1;ratioP1;P1;durP2;ratioP2;P2;SDS_P1;SDS_P2;PMS_P1;PMS_P2;Temp;Humidity;BMP_temperature;BMP_pressure;BME280_temperature;BME280_humidity;BME280_pressure;Samples;Min_cycle;Max_cycle;Signal;HPM_P1;HPM_P2
2022/10/11 00:00:52;;;;;;;5.90;3.28;;;13.00;99.90;;;12.57;100.00;97744.22;4972577;28;20034;-49
2022/10/11 00:03:18;;;;;;;5.93;3.25;;;12.90;99.90;;;12.51;100.00;97751.56;4973863;28;20033;-53
2022/10/11 00:05:43;;;;;;;5.03;3.42;;;12.80;99.90;;;12.43;100.00;97749.22;4964869;28;20041;-54
2022/10/11 00:08:10;;;;;;;5.68;3.38;;;12.80;99.90;;;12.36;100.00;97748.59;4963615;28;20875;-55
2022/10/11 00:10:37;;;;;;;8.23;3.47;;;12.80;99.90;;;12.28;100.00;97739.25;4972449;28;20061;-51
2022/10/11 00:13:03;;;;;;;8.20;3.20;;;12.70;99.90;;;12.25;100.00;97745.50;4966393;28;20061;-51
2022/10/11 00:15:29;;;;;;;6.20;3.00;;;12.60;99.90;;;12.23;100.00;97749.97;4966801;28;20080;-53
2022/10/11 00:17:55;;;;;;;7.57;3.50;;;12.60;99.90;;;12.17;100.00;97753.72;4965312;28;20238;-54
2022/10/11 00:20:21;;;;;;;5.15;3.22;;;12.60;99.90;;;12.16;100.00;97743.19;4970333;28;20564;-52
2022/10/11 00:22:48;;;;;;;8.40;3.28;;;12.50;99.90;;;12.17;100.00;97750.22;4956561;28;20096;-51
2022/10/11 00:25:14;;;;;;;9.05;4.10;;;12.50;99.90;;;12.21;100.00;97752.66;4952918;28;20045;-50
2022/10/11 00:27:40;;;;;;;12.98;5.10;;;12.50;99.90;;;12.27;100.00;97756.88;4964615;28;20475;-52
2022/10/11 00:30:08;;;;;;;16.90;4.68;;;12.60;99.90;;;12.23;100.00;97756.13;4976167;28;20072;-51
2022/10/11 00:32:36;;;;;;;6.72;3.97;;;12.60;99.90;;;12.05;100.00;97743.59;4959239;28;20048;-53
2022/10/11 00:35:05;;;;;;;9.20;4.20;;;12.60;99.90;;;12.14;100.00;97761.75;4976756;28;20520;-51
2022/10/11 00:37:37;;;;;;;7.35;3.95;;;12.50;99.90;;;12.09;100.00;97762.84;4975454;28;20038;-54
2022/10/11 00:40:09;;;;;;;7.73;3.50;;;12.50;99.90;;;12.05;100.00;97758.59;4970453;28;20040;-54
2022/10/11 00:42:35;;;;;;;;;;;12.50;99.90;;;11.91;100.00;97743.25;4969657;28;20138;-52
2022/10/11 00:45:25;;;;;;;6.22;4.00;;;12.40;99.90;;;12.01;100.00;97756.06;4972426;28;20267;-52
2022/10/11 00:47:53;;;;;;;9.32;3.92;;;12.40;99.90;;;11.98;100.00;97756.19;4974326;28;20034;-53
2022/10/11 00:50:22;;;;;;;6.50;3.72;;;12.40;99.90;;;11.98;100.00;97760.59;4956022;28;20124;-53
2022/10/11 00:52:56;;;;;;;10.80;4.40;;;12.40;99.90;;;11.95;100.00;97755.44;4959971;28;20117;-53
2022/10/11 00:55:26;;;;;;;6.88;4.00;;;12.40;99.90;;;11.93;100.00;97758.13;4957697;28;20026;-53
2022/10/11 00:57:52;;;;;;;7.53;4.60;;;12.30;99.90;;;11.92;100.00;97760.84;4955375;28;20058;-53
2022/10/11 01:00:19;;;;;;;11.30;4.88;;;12.30;99.90;;;11.92;100.00;97759.06;4962497;28;20038;-54
2022/10/11 01:02:45;;;;;;;7.07;4.28;;;12.30;99.90;;;11.90;100.00;97760.91;4975171;28;20038;-53
2022/10/11 01:05:15;;;;;;;8.07;3.95;;;12.30;99.90;;;11.88;100.00;97765.34;4954584;28;20037;-53
2022/10/11 01:07:41;;;;;;;7.70;4.10;;;12.30;99.90;;;11.81;100.00;97764.69;4959982;28;20116;-54
2022/10/11 01:10:08;;;;;;;9.18;4.35;;;12.20;99.90;;;11.74;100.00;97765.84;4957888;28;20038;-51
2022/10/11 01:12:34;;;;;;;11.13;4.10;;;12.20;99.90;;;11.72;100.00;97770.31;4951006;28;20263;-52
2022/10/11 01:15:06;;;;;;;11.18;5.65;;;12.20;99.90;;;11.69;100.00;97777.50;4959254;28;20054;-53
2022/10/11 01:18:05;;;;;;;9.23;5.87;;;12.20;99.90;;;11.64;100.00;97770.56;4977793;28;20042;-54
2022/10/11 01:20:58;;;;;;;8.68;4.65;;;12.10;99.90;;;11.62;100.00;97767.13;4970893;28;20117;-52
2022/10/11 01:24:06;;;;;;;7.80;4.97;;;12.10;99.90;;;11.60;100.00;97766.31;4980675;28;20389;-53
2022/10/11 01:26:56;;;;;;;7.90;4.40;;;12.10;99.90;;;11.58;100.00;97762.88;4955172;28;20042;-53
2022/10/11 01:29:44;;;;;;;8.35;3.55;;;12.00;99.90;;;11.58;100.00;97764.66;4959360;28;20073;-54
2022/10/11 01:32:27;;;;;;;6.88;4.05;;;12.00;99.90;;;11.56;100.00;97770.00;4951209;28;20180;-50
2022/10/11 01:35:02;;;;;;;5.65;3.80;;;12.00;99.90;;;11.53;100.00;97772.72;4972636;28;20026;-52
2022/10/11 01:37:34;;;;;;;9.27;4.13;;;12.00;99.90;;;11.50;100.00;97762.25;4962647;28;20359;-50
2022/10/11 01:40:13;;;;;;;10.70;5.70;;;12.00;99.90;;;11.55;100.00;97762.97;4970437;28;20034;-52
2022/10/11 01:42:42;;;;;;;8.48;5.15;;;12.00;99.90;;;11.56;100.00;97769.13;4948231;28;20120;-52
2022/10/11 01:45:14;;;;;;;12.18;5.80;;;12.00;99.90;;;11.49;100.00;97760.56;4978126;28;20035;-52
2022/10/11 01:47:41;;;;;;;10.50;5.15;;;12.00;99.90;;;11.51;100.00;97760.50;4964062;28;20042;-54
2022/10/11 01:50:36;;;;;;;10.02;5.60;;;11.90;99.90;;;11.48;100.00;97772.03;4985217;28;20152;-54
2022/10/11 01:53:46;;;;;;;10.85;6.40;;;11.90;99.90;;;11.45;100.00;97764.22;4986518;28;20118;-55
2022/10/11 01:56:49;;;;;;;11.77;6.03;;;11.90;99.90;;;11.44;100.00;97765.97;4984818;28;20037;-50
2022/10/11 02:00:01;;;;;;;10.90;5.88;;;11.90;99.90;;;11.44;100.00;97762.50;4988700;28;20168;-53
2022/10/11 02:03:01;;;;;;;12.98;6.28;;;11.90;99.90;;;11.51;100.00;97771.94;4959716;28;20042;-54
2022/10/11 02:05:56;;;;;;;9.70;5.50;;;11.90;99.90;;;11.58;100.00;97772.59;4985120;28;20034;-53
2022/10/11 02:08:37;;;;;;;9.93;6.13;;;12.00;99.90;;;11.68;100.00;97773.13;4971518;28;20068;-50
2022/10/11 02:11:20;;;;;;;11.27;6.85;;;12.00;99.90;;;11.75;100.00;97767.53;4978256;28;20034;-54
2022/10/11 02:13:59;;;;;;;22.05;9.05;;;12.10;99.90;;;11.86;100.00;97764.50;4951677;28;20274;-50
2022/10/11 02:16:38;;;;;;;21.38;9.27;;;12.20;99.90;;;11.93;100.00;97766.06;4973999;28;20311;-53
2022/10/11 02:19:05;;;;;;;16.27;8.98;;;12.30;99.90;;;11.96;100.00;97762.44;4957023;28;20042;-53
2022/10/11 02:21:35;;;;;;;12.02;7.25;;;12.30;99.90;;;11.93;100.00;97763.41;4954219;28;20077;-52
2022/10/11 02:24:16;;;;;;;11.02;6.88;;;12.30;99.90;;;11.74;100.00;97738.56;4960360;28;20088;-50
2022/10/11 02:26:46;;;;;;;11.80;7.13;;;12.30;99.90;;;11.87;100.00;97763.59;4957020;28;20243;-55
2022/10/11 02:29:15;;;;;;;12.88;8.15;;;12.30;99.90;;;11.75;100.00;97748.19;4956711;28;20034;-52
2022/10/11 02:31:42;;;;;;;10.40;7.70;;;12.30;99.90;;;11.76;100.00;97747.28;4951001;28;20038;-55
2022/10/11 02:34:17;;;;;;;10.07;6.85;;;12.30;99.90;;;11.96;100.00;97779.16;4972060;28;20045;-52
2022/10/11 02:37:11;;;;;;;10.23;6.30;;;12.40;99.90;;;11.98;100.00;97774.69;4950945;28;20042;-51
2022/10/11 02:39:45;;;;;;;9.95;6.25;;;12.40;99.90;;;12.03;100.00;97771.88;4955402;28;20702;-53
2022/10/11 02:42:19;;;;;;;10.07;6.47;;;12.40;99.90;;;12.06;100.00;97778.81;4970024;28;20038;-52
2022/10/11 02:45:04;;;;;;;14.68;7.40;;;12.40;99.90;;;12.08;100.00;97783.16;4967917;28;20041;-54
2022/10/11 02:47:31;;;;;;;63.28;11.50;;;12.50;99.90;;;12.08;100.00;97782.25;4969913;28;20078;-52
2022/10/11 02:50:00;;;;;;;25.27;8.73;;;12.50;99.90;;;12.10;100.00;97780.44;4962484;28;22407;-53
2022/10/11 02:52:26;;;;;;;14.23;7.35;;;12.50;99.90;;;12.07;100.00;97773.47;4951848;28;20045;-55
2022/10/11 02:54:52;;;;;;;11.40;7.15;;;12.50;99.90;;;12.13;100.00;97780.31;4969362;28;20026;-52
2022/10/11 02:57:18;;;;;;;39.95;7.68;;;12.50;99.90;;;12.13;100.00;97778.56;4975418;28;20030;-52
2022/10/11 02:59:44;;;;;;;9.60;5.80;;;12.50;99.90;;;12.14;100.00;97782.06;4964919;28;20410;-52
2022/10/11 03:02:09;;;;;;;11.23;5.57;;;12.60;99.90;;;12.12;100.00;97783.91;4966443;28;20881;-53
2022/10/11 03:04:35;;;;;;;21.38;8.57;;;12.50;99.90;;;12.11;100.00;97782.16;4970556;28;20942;-53
2022/10/11 03:07:01;;;;;;;13.77;7.20;;;12.50;99.90;;;12.14;100.00;97793.47;4969942;28;20037;-53
2022/10/11 03:09:27;;;;;;;15.07;8.48;;;12.50;99.90;;;12.15;100.00;97792.59;4970644;28;20045;-50
2022/10/11 03:11:52;;;;;;;10.38;7.22;;;12.60;99.90;;;12.17;100.00;97788.09;4964126;28;20543;-51
2022/10/11 03:14:18;;;;;;;17.77;10.35;;;12.60;99.90;;;12.21;100.00;97792.34;4970695;28;20041;-53
2022/10/11 03:16:44;;;;;;;13.98;8.35;;;12.60;99.90;;;12.25;100.00;97792.22;4948911;28;20673;-52
2022/10/11 03:19:10;;;;;;;15.77;8.88;;;12.60;99.90;;;12.25;100.00;97790.44;4967937;28;20092;-50
2022/10/11 03:21:36;;;;;;;14.85;8.80;;;12.70;99.90;;;12.27;100.00;97793.88;4970377;28;20030;-54
2022/10/11 03:24:02;;;;;;;14.20;9.43;;;12.70;99.90;;;12.28;100.00;97790.34;4987407;23;20175;-42
2022/10/11 03:26:28;;;;;;;12.30;8.82;;;12.70;99.90;;;12.29;100.00;97801.78;4976735;28;20138;-42
2022/10/11 03:28:54;;;;;;;14.55;10.35;;;12.70;99.90;;;12.29;100.00;97802.66;4977263;28;20038;-46
2022/10/11 03:31:20;;;;;;;27.95;11.63;;;12.70;99.90;;;12.22;100.00;97799.38;4974400;28;20320;-43
2022/10/11 03:33:46;;;;;;;26.02;14.38;;;12.70;99.90;;;12.27;100.00;97807.09;4977746;28;20249;-46
2022/10/11 03:36:14;;;;;;;26.02;11.85;;;12.70;99.90;;;12.25;100.00;97801.03;4974417;28;20030;-46
2022/10/11 03:38:40;;;;;;;13.82;10.32;;;12.70;99.90;;;12.25;100.00;97801.03;4974624;28;20037;-44
2022/10/11 03:41:06;;;;;;;11.25;8.10;;;12.70;99.90;;;12.26;100.00;97808.03;4971513;28;20072;-46
2022/10/11 03:43:31;;;;;;;14.48;9.60;;;12.60;99.90;;;12.21;100.00;97796.78;4974964;28;20403;-43
2022/10/11 03:45:57;;;;;;;17.88;10.85;;;12.70;99.90;;;12.24;100.00;97809.91;4973901;28;20136;-43
2022/10/11 03:48:23;;;;;;;12.85;9.52;;;12.60;99.90;;;12.22;100.00;97803.78;4975793;28;21335;-44
2022/10/11 03:50:49;;;;;;;15.95;9.90;;;12.60;99.90;;;12.21;100.00;97807.34;4972180;28;20038;-42
2022/10/11 03:53:14;;;;;;;18.15;10.32;;;12.60;99.90;;;12.21;100.00;97812.63;4966912;28;20045;-46
2022/10/11 03:55:41;;;;;;;18.17;10.45;;;12.60;99.90;;;12.22;100.00;97809.06;4973497;28;20037;-45
2022/10/11 03:58:07;;;;;;;17.35;11.75;;;12.60;99.90;;;12.24;100.00;97817.81;4966994;28;20038;-42
2022/10/11 04:00:34;;;;;;;17.80;12.10;;;12.60;99.90;;;12.28;100.00;97822.06;4973781;28;20027;-46
2022/10/11 04:03:02;;;;;;;25.08;13.70;;;12.60;99.90;;;12.14;100.00;97788.19;4975355;28;20042;-42
2022/10/11 04:05:28;;;;;;;28.63;15.88;;;12.70;99.90;;;12.32;100.00;97823.66;4978493;28;20161;-46
2022/10/11 04:07:54;;;;;;;22.40;12.82;;;12.70;99.90;;;12.33;100.00;97820.13;4987880;28;20022;-46
2022/10/11 04:10:20;;;;;;;28.05;13.98;;;12.70;99.90;;;12.39;100.00;97819.03;4974783;28;20404;-45
2022/10/11 04:12:46;;;;;;;20.15;12.75;;;12.70;99.90;;;12.39;100.00;97816.38;4973674;28;20042;-43
2022/10/11 04:15:12;;;;;;;32.92;16.33;;;12.80;99.90;;;12.43;100.00;97825.06;4975854;28;20117;-42
2022/10/11 04:17:39;;;;;;;27.05;15.02;;;12.90;99.90;;;12.44;100.00;97826.81;4977278;28;20033;-44
2022/10/11 04:20:06;;;;;;;25.42;15.40;;;12.80;99.90;;;12.44;100.00;97829.44;4973915;28;20507;-42
2022/10/11 04:22:32;;;;;;;36.60;19.92;;;12.80;99.90;;;12.40;100.00;97840.13;4978097;28;20287;-45
2022/10/11 04:24:58;;;;;;;21.33;14.00;;;12.80;99.90;;;12.38;100.00;97826.09;4975548;28;20144;-44
2022/10/11 04:27:27;;;;;;;19.70;13.23;;;12.80;99.90;;;12.37;100.00;97821.72;4974390;28;21549;-46
2022/10/11 04:29:53;;;;;;;21.98;13.88;;;12.80;99.90;;;12.38;100.00;97828.75;4987279;28;20042;-44
2022/10/11 04:32:19;;;;;;;17.00;11.75;;;12.80;99.90;;;12.37;100.00;97837.59;4974256;28;20045;-43
2022/10/11 04:34:45;;;;;;;18.25;9.52;;;12.80;99.90;;;12.36;100.00;97835.00;4969160;28;20037;-44
2022/10/11 04:37:10;;;;;;;13.75;9.18;;;12.80;99.90;;;12.35;100.00;97835.94;4982213;28;20037;-43
2022/10/11 04:39:37;;;;;;;15.43;10.80;;;12.70;99.90;;;12.28;100.00;97826.50;4985769;28;20891;-43
2022/10/11 04:42:03;;;;;;;35.95;16.80;;;12.70;99.90;;;12.25;100.00;97831.91;4980806;28;20041;-43
2022/10/11 04:44:30;;;;;;;34.88;17.98;;;12.60;99.90;;;12.19;100.00;97833.84;4973001;28;20454;-45
2022/10/11 04:46:55;;;;;;;31.05;16.83;;;12.60;99.90;;;12.13;100.00;97833.19;4980154;28;20032;-46
2022/10/11 04:49:22;;;;;;;29.98;16.55;;;12.60;99.90;;;12.15;100.00;97849.88;4986086;28;20034;-42
2022/10/11 04:51:47;;;;;;;27.88;13.73;;;12.60;99.90;;;12.17;100.00;97846.25;4985080;28;20037;-43
2022/10/11 04:54:13;;;;;;;29.75;14.90;;;12.60;99.90;;;12.17;100.00;97848.06;4974049;28;20034;-42
2022/10/11 04:56:39;;;;;;;28.13;15.95;;;12.60;99.90;;;12.23;100.00;97843.38;4977830;28;20484;-44
2022/10/11 04:59:05;;;;;;;29.75;17.42;;;12.60;99.90;;;12.27;100.00;97845.91;4985163;28;20502;-43
2022/10/11 05:01:30;;;;;;;25.75;16.48;;;12.70;99.90;;;12.29;100.00;97850.25;4978513;28;20195;-42
2022/10/11 05:03:56;;;;;;;31.50;17.08;;;12.70;99.90;;;12.30;100.00;97851.97;4986482;28;20486;-44
2022/10/11 05:06:22;;;;;;;25.10;15.63;;;12.70;99.90;;;12.30;100.00;97846.66;4981124;28;20046;-43
2022/10/11 05:08:47;;;;;;;31.17;18.42;;;12.70;99.90;;;12.31;100.00;97859.00;4980634;28;20041;-42
2022/10/11 05:11:15;;;;;;;29.65;17.50;;;12.70;99.90;;;12.28;100.00;97853.81;4975135;28;20049;-42
2022/10/11 05:13:42;;;;;;;30.75;17.55;;;12.70;99.90;;;12.28;100.00;97855.59;4950531;28;20471;-45
2022/10/11 05:16:08;;;;;;;31.05;17.20;;;12.70;99.90;;;12.31;100.00;97853.69;4986097;28;20030;-43
2022/10/11 05:18:34;;;;;;;23.88;13.10;;;12.70;99.90;;;12.32;100.00;97860.69;4993323;28;20061;-43
2022/10/11 05:21:04;;;;;;;21.65;13.77;;;12.70;99.90;;;12.32;100.00;97854.56;4974181;28;20033;-44
2022/10/11 05:23:34;;;;;;;23.13;13.82;;;12.70;99.90;;;12.33;100.00;97865.09;4971289;28;20037;-43
2022/10/11 05:26:00;;;;;;;25.33;15.52;;;12.80;99.90;;;12.32;100.00;97862.50;4990532;28;20065;-42
2022/10/11 05:28:26;;;;;;;37.83;19.92;;;12.80;99.90;;;12.29;100.00;97865.25;4991730;28;20088;-42
2022/10/11 05:30:53;;;;;;;27.35;16.80;;;12.70;99.90;;;12.30;100.00;97870.47;4981884;28;20072;-46
2022/10/11 05:33:19;;;;;;;22.55;15.00;;;12.70;99.90;;;12.28;100.00;97871.47;4970267;28;20541;-45
2022/10/11 05:35:45;;;;;;;19.80;13.43;;;12.70;99.90;;;12.33;100.00;97873.03;4986071;28;20117;-41
2022/10/11 05:38:11;;;;;;;19.02;13.98;;;12.70;99.90;;;12.36;100.00;97883.50;4972329;28;20034;-42
2022/10/11 05:40:37;;;;;;;23.98;14.68;;;12.70;99.90;;;12.34;100.00;97877.38;4991839;28;20030;-45
2022/10/11 05:43:04;;;;;;;26.35;16.60;;;12.80;99.90;;;12.34;100.00;97876.53;4991592;28;20027;-42
2022/10/11 05:45:31;;;;;;;24.42;15.63;;;12.70;99.90;;;12.39;100.00;97891.28;4990225;28;20050;-43
2022/10/11 05:47:57;;;;;;;29.27;16.50;;;12.80;99.90;;;12.38;100.00;97881.66;4972836;28;20120;-43
2022/10/11 05:50:23;;;;;;;23.00;15.80;;;12.80;99.90;;;12.38;100.00;97884.31;4994311;28;20137;-42
2022/10/11 05:52:49;;;;;;;20.92;13.20;;;12.80;99.90;;;12.40;100.00;97894.81;4994496;28;20480;-47
2022/10/11 05:55:15;;;;;;;24.05;16.60;;;12.80;99.90;;;12.40;100.00;97900.97;4989279;28;20057;-44
2022/10/11 05:57:41;;;;;;;27.75;16.55;;;12.80;99.90;;;12.43;100.00;97899.97;4993668;28;20065;-45
2022/10/11 06:00:07;;;;;;;58.25;19.15;;;12.80;99.90;;;12.45;100.00;97894.63;4984424;28;20033;-44
2022/10/11 06:02:33;;;;;;;29.92;17.38;;;12.80;99.90;;;12.46;100.00;97909.59;4989636;28;20038;-43
2022/10/11 06:04:59;;;;;;;24.25;15.55;;;12.80;99.90;;;12.39;100.00;97904.53;4991962;28;20108;-42
2022/10/11 06:07:25;;;;;;;21.83;14.80;;;12.80;99.90;;;12.49;100.00;97918.28;4992924;28;20037;-42
2022/10/11 06:09:51;;;;;;;28.40;18.02;;;12.90;99.90;;;12.43;100.00;97899.97;4991207;28;20057;-43
2022/10/11 06:12:17;;;;;;;28.63;17.25;;;12.90;99.90;;;12.52;100.00;97926.09;4990433;28;20352;-43
2022/10/11 06:14:43;;;;;;;25.98;15.43;;;12.90;99.90;;;12.54;100.00;97923.41;4992087;28;20370;-44
2022/10/11 06:17:09;;;;;;;21.42;15.00;;;12.90;99.90;;;12.53;100.00;97921.69;4990822;28;20041;-41
2022/10/11 06:19:35;;;;;;;29.00;16.75;;;12.90;99.90;;;12.49;100.00;97920.06;4989800;28;20042;-45
2022/10/11 06:22:01;;;;;;;25.15;15.20;;;12.90;99.90;;;12.53;100.00;97929.63;4991258;28;20038;-42
2022/10/11 06:24:27;;;;;;;29.42;16.52;;;12.90;99.90;;;12.51;100.00;97920.88;4988940;28;20136;-46
2022/10/11 06:26:53;;;;;;;25.10;14.50;;;12.90;99.90;;;12.52;100.00;97926.09;4989032;28;20029;-43
2022/10/11 06:29:18;;;;;;;27.65;15.70;;;12.90;99.90;;;12.53;100.00;97932.28;4988928;28;20551;-45
2022/10/11 06:31:46;;;;;;;24.80;15.75;;;12.90;99.90;;;12.53;100.00;97929.63;4990402;28;20042;-42
2022/10/11 06:34:12;;;;;;;27.45;16.88;;;12.90;99.90;;;12.54;100.00;97933.97;4989096;28;20028;-42
2022/10/11 06:36:38;;;;;;;25.15;15.55;;;12.90;99.90;;;12.54;100.00;97940.16;4989756;28;20034;-44
2022/10/11 06:39:04;;;;;;;29.40;15.40;;;12.90;99.90;;;12.56;100.00;97934.78;4989791;28;20048;-42
2022/10/11 06:41:30;;;;;;;29.02;15.90;;;12.90;99.90;;;12.61;100.00;97946.06;4987494;28;20468;-44
2022/10/11 06:43:56;;;;;;;23.60;15.27;;;13.00;99.90;;;12.58;100.00;97940.91;4985852;28;20482;-42
2022/10/11 06:46:24;;;;;;;29.17;16.48;;;13.00;99.90;;;12.63;100.00;97946.88;4986201;28;20491;-42
2022/10/11 06:48:51;;;;;;;27.70;17.02;;;13.00;99.90;;;12.64;100.00;97955.69;4989050;28;20044;-41
2022/10/11 06:51:19;;;;;;;33.58;17.45;;;13.00;99.90;;;12.59;100.00;97956.72;4989875;28;20149;-42
2022/10/11 06:53:55;;;;;;;37.13;20.33;;;13.00;99.90;;;12.55;100.00;97954.25;4988867;28;20036;-45
2022/10/11 06:56:21;;;;;;;29.23;18.45;;;13.00;99.90;;;12.50;100.00;97954.41;4984952;28;20562;-43
2022/10/11 06:58:47;;;;;;;32.83;16.95;;;12.90;99.90;;;12.53;100.00;97953.44;4986116;28;20108;-41
2022/10/11 07:01:19;;;;;;;22.35;15.10;;;12.90;99.90;;;12.60;100.00;97957.59;4989767;28;20484;-41
2022/10/11 07:03:45;;;;;;;31.60;15.85;;;13.00;99.90;;;12.59;100.00;97950.56;4989248;28;20076;-42
2022/10/11 07:06:18;;;;;;;29.70;17.45;;;13.00;99.90;;;12.66;100.00;97964.44;4985311;28;20096;-41
2022/10/11 07:08:44;;;;;;;30.00;18.27;;;13.00;99.90;;;12.68;100.00;97973.19;4984235;28;20041;-43
2022/10/11 07:11:22;;;;;;;28.80;18.08;;;13.00;99.90;;;12.68;100.00;97970.53;4990295;28;20125;-46
2022/10/11 07:13:50;;;;;;;31.95;18.88;;;13.10;99.90;;;12.66;100.00;97970.59;4988910;28;20038;-43
2022/10/11 07:16:17;;;;;;;35.10;18.65;;;13.10;99.90;;;12.70;100.00;97981.94;4985527;28;20550;-43
2022/10/11 07:18:42;;;;;;;31.13;17.90;;;13.10;99.90;;;12.70;100.00;97980.13;4985052;28;20555;-42
2022/10/11 07:21:12;;;;;;;27.17;17.38;;;13.10;99.90;;;12.71;100.00;97984.53;4983725;28;20035;-42
2022/10/11 07:23:39;;;;;;;31.00;18.20;;;13.10;99.90;;;12.70;100.00;97982.78;4989350;28;20060;-42
2022/10/11 07:26:05;;;;;;;23.27;15.57;;;13.10;99.90;;;12.70;100.00;97985.44;4989074;28;20068;-44
2022/10/11 07:28:32;;;;;;;24.15;15.52;;;13.10;99.90;;;12.76;100.00;97992.31;4990329;28;20038;-45
2022/10/11 07:31:03;;;;;;;30.00;19.35;;;13.10;99.90;;;12.75;100.00;97996.72;4988901;28;20676;-44
2022/10/11 07:33:29;;;;;;;30.88;16.77;;;13.20;99.90;;;12.80;100.00;97997.41;4990529;28;20120;-43
2022/10/11 07:35:56;;;;;;;29.73;18.10;;;13.20;99.90;;;12.86;100.00;97998.97;4989863;28;20022;-46
2022/10/11 07:38:22;;;;;;;25.90;15.85;;;13.30;99.90;;;12.92;100.00;97995.22;4988461;28;20042;-42
2022/10/11 07:40:48;;;;;;;28.30;15.63;;;13.30;99.90;;;12.97;100.00;98001.22;4990599;28;20548;-42
2022/10/11 07:43:13;;;;;;;20.67;13.90;;;13.30;99.90;;;13.03;100.00;98001.00;4988849;28;20061;-43
2022/10/11 07:45:43;;;;;;;22.95;14.25;;;13.30;99.90;;;13.10;100.00;97991.91;4986846;28;20080;-43
2022/10/11 07:48:10;;;;;;;24.65;14.90;;;13.40;99.90;;;13.15;100.00;97991.72;4985076;28;20096;-43
2022/10/11 07:50:36;;;;;;;26.02;14.85;;;13.50;99.90;;;13.24;100.00;97996.66;4968889;28;20499;-43
2022/10/11 07:53:03;;;;;;;31.88;15.68;;;13.60;99.90;;;13.30;100.00;97998.25;4990495;28;20045;-43
2022/10/11 07:55:30;;;;;;;31.55;17.60;;;13.70;99.90;;;13.29;100.00;97994.72;4989092;28;20030;-43
2022/10/11 07:57:56;;;;;;;23.05;16.13;;;13.70;99.90;;;13.17;100.00;97982.81;4989185;28;20054;-43
2022/10/11 08:00:22;;;;;;;27.02;17.05;;;13.70;99.90;;;13.29;100.00;97999.16;4988306;28;20113;-42
2022/10/11 08:02:48;;;;;;;30.23;17.42;;;13.70;99.90;;;13.32;100.00;98007.88;4981392;28;20318;-43
2022/10/11 08:05:14;;;;;;;23.85;14.88;;;13.70;99.90;;;13.36;100.00;98008.63;4986638;28;20037;-42
2022/10/11 08:07:39;;;;;;;24.65;15.35;;;13.70;99.90;;;13.40;100.00;98006.72;4988923;28;20065;-41
2022/10/11 08:10:07;;;;;;;24.85;15.23;;;13.80;99.90;;;13.42;100.00;98000.44;4990186;28;20022;-45
2022/10/11 08:12:33;;;;;;;30.90;17.58;;;13.80;99.90;;;13.40;100.00;98009.38;4991310;28;20558;-43
2022/10/11 08:14:59;;;;;;;27.35;15.82;;;13.80;99.90;;;13.43;100.00;98012.78;4988728;28;20070;-42
2022/10/11 08:17:25;;;;;;;22.27;14.35;;;13.80;99.90;;;13.44;100.00;98008.31;4989696;28;20112;-46
2022/10/11 08:19:51;;;;;;;29.55;15.10;;;13.80;99.90;;;13.35;100.00;97988.34;4988228;28;20299;-42
2022/10/11 08:22:17;;;;;;;20.80;13.43;;;13.80;99.90;;;13.55;100.00;98012.28;4984802;28;20200;-43
2022/10/11 08:24:43;;;;;;;19.50;13.90;;;13.90;99.90;;;13.52;100.00;98001.81;4986452;28;20658;-44
2022/10/11 08:27:09;;;;;;;26.05;16.25;;;13.90;99.90;;;13.58;100.00;98008.66;4993267;28;20049;-43
2022/10/11 08:29:34;;;;;;;26.15;14.82;;;14.00;99.90;;;13.57;100.00;98014.88;4992253;28;20030;-42
2022/10/11 08:32:00;;;;;;;19.88;13.23;;;14.00;99.90;;;13.59;100.00;98020.13;4985224;28;20033;-44
2022/10/11 08:34:26;;;;;;;22.38;12.98;;;14.00;99.90;;;13.56;100.00;98021.94;4991169;28;20088;-41
2022/10/11 08:36:51;;;;;;;28.25;15.15;;;14.00;99.90;;;13.55;100.00;98014.94;4986879;28;22138;-42
2022/10/11 08:39:17;;;;;;;27.23;15.98;;;13.90;99.90;;;13.49;100.00;98023.13;4988639;28;20030;-43
2022/10/11 08:41:54;;;;;;;25.77;14.35;;;13.90;99.90;;;13.50;100.00;98019.56;4990800;28;20634;-43
2022/10/11 08:44:36;;;;;;;19.05;12.68;;;13.90;99.90;;;13.52;100.00;98022.16;4973263;28;20038;-44
2022/10/11 08:47:26;;;;;;;19.65;11.60;;;13.90;99.90;;;13.53;100.00;98021.22;4973643;28;20301;-41
2022/10/11 08:49:53;;;;;;;26.25;15.27;;;13.90;99.90;;;13.48;100.00;98024.06;4975847;28;20492;-43
2022/10/11 08:52:30;;;;;;;24.02;14.25;;;13.90;99.90;;;13.51;100.00;98021.28;4992312;28;20044;-42
2022/10/11 08:55:05;;;;;;;20.55;14.43;;;13.90;99.90;;;13.52;100.00;98030.09;4977020;28;20530;-46
2022/10/11 08:57:35;;;;;;;24.00;14.15;;;13.90;99.90;;;13.57;100.00;98022.84;4991210;28;20023;-43
2022/10/11 09:00:14;;;;;;;25.48;16.60;;;13.90;99.90;;;13.57;100.00;98022.84;4976294;28;20046;-43
2022/10/11 09:02:54;;;;;;;25.25;16.52;;;14.00;99.90;;;13.60;100.00;98025.34;4969130;28;20037;-44
2022/10/11 09:05:22;;;;;;;27.20;16.00;;;14.00;99.90;;;13.69;100.00;98027.66;4988527;28;20033;-46
2022/10/11 09:08:17;;;;;;;29.30;16.33;;;14.10;99.90;;;13.69;100.00;98022.34;4992247;28;20518;-44
2022/10/11 09:11:22;;;;;;;25.05;15.10;;;14.10;99.90;;;13.73;100.00;98025.75;4980481;28;20045;-42
2022/10/11 09:14:15;;;;;;;34.05;17.77;;;14.10;99.90;;;13.66;100.00;98024.28;4986620;28;20042;-45
2022/10/11 09:17:00;;;;;;;24.05;13.80;;;14.10;99.90;;;13.67;100.00;98026.81;4994353;28;20041;-43
2022/10/11 09:20:05;;;;;;;27.52;16.45;;;14.10;99.90;;;13.70;100.00;98029.38;4993414;28;20029;-43
2022/10/11 09:22:58;;;;;;;30.20;16.02;;;14.10;99.90;;;13.77;100.00;98030.00;4988581;28;21503;-44
2022/10/11 09:25:38;;;;;;;29.77;14.55;;;14.10;99.90;;;13.77;100.00;98024.69;5005811;23;20054;-50
2022/10/11 09:28:20;;;;;;;19.17;12.23;;;14.20;99.90;;;13.79;100.00;98032.59;4974998;28;20056;-51
2022/10/11 09:30:50;;;;;;;27.70;14.80;;;14.20;99.90;;;13.81;100.00;98021.00;4988932;28;20377;-52
2022/10/11 09:33:37;;;;;;;23.42;14.05;;;14.20;99.90;;;13.90;100.00;98030.38;4973524;28;20121;-51
2022/10/11 09:36:19;;;;;;;22.48;14.10;;;14.30;99.90;;;13.93;100.00;98028.44;4967810;28;20061;-49
2022/10/11 09:38:50;;;;;;;26.15;14.63;;;14.30;99.90;;;13.92;100.00;98026.72;4952099;28;20034;-52
2022/10/11 09:41:47;;;;;;;23.48;14.38;;;14.30;99.90;;;13.90;100.00;98025.91;4973767;28;20066;-52
2022/10/11 09:44:24;;;;;;;26.33;13.23;;;14.30;99.90;;;13.91;100.00;98029.44;4972990;28;20052;-50
2022/10/11 09:46:53;;;;;;;29.50;13.68;;;14.30;99.90;;;13.91;100.00;98034.75;4970959;28;20488;-52
2022/10/11 09:49:24;;;;;;;13.80;10.25;;;14.30;99.90;;;13.95;100.00;98033.69;4973456;28;20034;-51
2022/10/11 09:51:56;;;;;;;20.48;13.25;;;14.30;99.90;;;13.98;100.00;98035.34;4969169;28;21698;-50
2022/10/11 09:54:42;;;;;;;24.33;13.38;;;14.30;99.90;;;14.06;100.00;98036.78;4954508;28;20030;-51
2022/10/11 09:57:25;;;;;;;32.42;16.70;;;14.50;99.90;;;14.10;100.00;98037.50;4973945;28;20089;-52
2022/10/11 10:00:20;;;;;;;24.42;14.35;;;14.50;99.90;;;14.15;100.00;98039.97;4950437;28;20444;-49
2022/10/11 10:02:55;;;;;;;27.95;15.02;;;14.50;99.90;;;14.15;100.00;98037.34;4971750;28;20034;-52
2022/10/11 10:05:30;;;;;;;31.77;15.48;;;14.60;99.90;;;14.11;100.00;98036.59;4970709;28;20078;-47
2022/10/11 10:07:59;;;;;;;31.55;15.10;;;14.50;99.90;;;14.07;100.00;98032.34;4971852;28;20069;-51
2022/10/11 10:10:44;;;;;;;24.60;14.68;;;14.50;99.90;;;14.01;100.00;98032.59;4955150;28;20081;-47
2022/10/11 10:13:22;;;;;;;24.40;14.60;;;14.50;99.90;;;13.99;100.00;98032.66;4968073;28;20031;-51
2022/10/11 10:15:58;;;;;;;24.13;13.63;;;14.40;99.90;;;14.05;100.00;98034.19;4970273;28;20616;-50
2022/10/11 10:18:36;;;;;;;23.95;13.40;;;14.40;99.90;;;14.13;100.00;98037.38;4964038;28;20125;-50